Time;durP1;ratioP1;P1;durP2;ratioP2;P2;SDS_P1;SDS_P2;PMS_P1;PMS_P2;Temp;Humidity;BMP_temperature;BMP_pressure;BME280_temperature;BME280_humidity;BME280_pressure;Samples;Min_cycle;Max_cycle;Signal;HPM_P1;HPM_P2
2024/02/02 18:39:43;;;;;;;15.27;8.30;;;;;;;9.66;67.17;99545.50;6230884;22;20035;-64
2024/02/02 18:42:10;;;;;;;7.85;4.60;;;;;;;9.60;67.28;99542.41;6174237;23;20024;-65
2024/02/02 18:44:38;;;;;;;6.93;3.90;;;;;;;9.60;67.60;99550.19;6194952;23;20008;-66
2024/02/02 18:47:04;;;;;;;8.98;4.40;;;;;;;9.38;67.83;99495.63;6200273;23;20101;-63
2024/02/02 18:49:29;;;;;;;7.45;4.25;;;;;;;9.51;68.22;99537.91;6198140;23;20682;-63
2024/02/02 18:51:54;;;;;;;8.38;3.70;;;;;;;9.46;69.30;99544.41;6198269;23;20012;-65
2024/02/02 18:54:20;;;;;;;8.57;3.65;;;;;;;9.41;69.91;99548.13;6171989;23;20431;-66
2024/02/02 18:56:48;;;;;;;9.52;3.50;;;;;;;9.38;68.99;99548.38;6197535;23;20238;-66
2024/02/02 18:59:13;;;;;;;6.32;3.25;;;;;;;9.41;68.55;99548.13;6174251;23;20387;-63
2024/02/02 19:01:38;;;;;;;8.13;4.55;;;;;;;9.40;70.28;99541.31;6172647;23;20008;-64
2024/02/02 19:04:04;;;;;;;7.15;3.90;;;;;;;9.33;70.04;99549.69;6173676;23;20044;-65
2024/02/02 19:06:32;;;;;;;6.95;3.72;;;;;;;9.24;70.17;99546.81;6196548;23;20044;-65
2024/02/02 19:09:00;;;;;;;9.70;5.18;;;;;;;9.11;70.85;99551.25;6173036;23;20551;-63
2024/02/02 19:11:25;;;;;;;8.35;4.70;;;;;;;9.12;70.53;99557.25;6174095;23;20019;-63
2024/02/02 19:13:53;;;;;;;8.20;4.57;;;;;;;8.96;70.97;99557.53;6197028;23;20051;-62
2024/02/02 19:16:19;;;;;;;8.48;4.57;;;;;;;8.99;70.83;99555.53;6193557;23;20018;-64
2024/02/02 19:18:46;;;;;;;9.65;5.05;;;;;;;8.98;71.30;99563.44;6195836;23;20016;-64
2024/02/02 19:21:21;;;;;;;10.43;5.70;;;;;;;8.62;71.09;99515.91;6197186;23;20212;-64
2024/02/02 19:23:49;;;;;;;12.05;6.60;;;;;;;8.89;70.40;99557.16;6196631;23;20012;-62
2024/02/02 19:26:15;;;;;;;13.40;6.82;;;;;;;8.87;70.39;99561.66;6195009;23;20543;-64
2024/02/02 19:28:43;;;;;;;12.75;7.35;;;;;;;8.81;70.88;99569.84;6198631;23;20011;-64
2024/02/02 19:31:08;;;;;;;14.20;7.18;;;;;;;8.72;71.09;99571.31;6172934;23;20020;-62
2024/02/02 19:33:34;;;;;;;14.25;8.32;;;;;;;8.82;70.42;99572.34;6198740;23;20015;-64
2024/02/02 19:35:59;;;;;;;17.33;8.23;;;;;;;8.48;71.26;99540.19;6166517;23;20666;-63
2024/02/02 19:38:25;;;;;;;16.73;8.77;;;;;;;8.64;70.49;99571.88;6205059;22;20020;-65
2024/02/02 19:40:55;;;;;;;21.05;8.75;;;;;;;8.61;70.69;99572.09;6228817;22;20455;-64
2024/02/02 19:43:21;;;;;;;15.20;8.38;;;;;;;8.54;70.62;99550.16;6202947;22;20103;-65
2024/02/02 19:45:47;;;;;;;15.88;9.48;;;;;;;8.36;70.49;99523.72;6203811;22;20089;-64
2024/02/02 19:48:12;;;;;;;16.48;9.35;;;;;;;8.53;71.33;99563.22;6224975;22;20012;-64
2024/02/02 19:50:40;;;;;;;18.30;10.95;;;;;;;8.68;70.96;99574.25;6223654;22;20506;-63
2024/02/02 19:53:08;;;;;;;18.95;11.55;;;;;;;8.55;71.67;99579.50;6191606;22;20011;-64
2024/02/02 19:55:33;;;;;;;23.42;12.20;;;;;;;8.36;71.69;99552.25;6204857;22;20008;-63
2024/02/02 19:58:01;;;;;;;21.33;13.32;;;;;;;8.46;72.43;99574.00;6227140;22;20054;-63
2024/02/02 20:00:27;;;;;;;24.15;14.00;;;;;;;8.42;72.59;99569.16;6203854;22;20020;-65
2024/02/02 20:02:54;;;;;;;24.95;14.70;;;;;;;8.46;72.44;99562.81;6202557;22;20016;-63
2024/02/02 20:05:27;;;;;;;26.17;16.35;;;;;;;8.38;72.64;99565.91;6228366;22;20189;-63
2024/02/02 20:07:56;;;;;;;23.35;15.50;;;;;;;8.39;72.97;99569.31;6228441;22;20019;-62
2024/02/02 20:10:24;;;;;;;24.25;15.57;;;;;;;8.46;73.09;99578.38;6203531;22;20375;-64
2024/02/02 20:12:49;;;;;;;31.80;20.17;;;;;;;8.42;72.20;99571.75;6228546;22;20170;-63
2024/02/02 20:15:14;;;;;;;25.77;16.17;;;;;;;8.48;72.39;99586.03;6228818;22;20496;-63
2024/02/02 20:17:42;;;;;;;26.17;16.05;;;;;;;8.43;72.93;99588.94;6198882;22;20027;-65
2024/02/02 20:20:08;;;;;;;27.17;16.25;;;;;;;8.05;73.01;99519.88;6229378;22;20607;-63
2024/02/02 20:22:33;;;;;;;27.20;16.08;;;;;;;8.43;73.22;99583.75;6203936;22;20007;-63
2024/02/02 20:24:59;;;;;;;27.17;16.08;;;;;;;8.38;73.58;99576.28;6227793;22;20481;-63
2024/02/02 20:27:25;;;;;;;28.80;17.92;;;;;;;8.37;73.61;99581.56;6204224;22;20503;-65
2024/02/02 20:29:50;;;;;;;28.30;18.58;;;;;;;8.41;73.19;99580.41;6230853;22;20007;-64
2024/02/02 20:32:20;;;;;;;28.13;17.80;;;;;;;8.33;74.28;99585.31;6205764;22;20063;-63
2024/02/02 20:34:48;;;;;;;28.50;18.27;;;;;;;8.33;74.68;99593.09;6230941;22;20007;-63
2024/02/02 20:37:13;;;;;;;27.15;17.13;;;;;;;8.28;74.82;99591.63;6232525;22;20436;-62
2024/02/02 20:39:39;;;;;;;28.70;18.48;;;;;;;8.25;75.93;99585.81;6200516;23;20113;-63
2024/02/02 20:42:08;;;;;;;31.55;19.02;;;;;;;8.08;76.08;99587.00;6226472;23;20094;-63
2024/02/02 20:44:40;;;;;;;27.23;18.53;;;;;;;8.15;75.39;99596.00;6200914;23;20039;-62
2024/02/02 20:47:07;;;;;;;29.70;18.50;;;;;;;8.13;75.99;99584.91;6226268;23;20008;-64
2024/02/02 20:49:32;;;;;;;27.35;16.60;;;;;;;8.14;75.58;99588.31;6222556;23;20043;-64
2024/02/02 20:51:57;;;;;;;27.73;18.08;;;;;;;8.02;76.27;99584.81;6204673;22;20095;-63
2024/02/02 20:54:23;;;;;;;29.23;18.70;;;;;;;8.00;76.26;99600.47;6231670;22;20015;-64
2024/02/02 20:56:49;;;;;;;31.23;19.10;;;;;;;8.04;76.32;99603.69;6230418;22;20173;-64
2024/02/02 20:59:14;;;;;;;26.05;18.80;;;;;;;8.04;76.21;99603.69;6205047;22;20080;-64
2024/02/02 21:01:40;;;;;;;30.23;19.10;;;;;;;8.04;76.19;99585.53;6230609;22;20003;-66
2024/02/02 21:04:05;;;;;;;29.23;18.73;;;;;;;8.03;76.31;99602.00;6226426;22;20109;-64
2024/02/02 21:06:31;;;;;;;30.33;19.92;;;;;;;8.02;76.19;99598.59;6204277;22;20547;-64
2024/02/02 21:08:56;;;;;;;33.13;19.30;;;;;;;7.87;77.28;99591.88;6229986;22;20523;-65
2024/02/02 21:11:21;;;;;;;25.92;17.98;;;;;;;7.84;77.66;99602.44;6203873;22;20339;-65
2024/02/02 21:13:49;;;;;;;29.95;18.90;;;;;;;7.78;77.33;99589.91;6204834;22;20046;-64
2024/02/02 21:16:17;;;;;;;26.85;18.92;;;;;;;7.76;77.37;99582.25;6206135;22;20015;-65
2024/02/02 21:18:42;;;;;;;31.33;20.65;;;;;;;7.87;76.75;99600.47;6202325;22;20436;-64
2024/02/02 21:21:17;;;;;;;29.65;19.38;;;;;;;7.78;77.24;99597.69;6257410;22;20019;-65
2024/02/02 21:23:47;;;;;;;33.28;20.88;;;;;;;7.68;77.88;99600.03;6231768;22;20012;-63
2024/02/02 21:26:12;;;;;;;;;;;;;;;7.64;78.26;99603.75;6203980;22;20022;-64
2024/02/02 21:28:39;;;;;;;31.15;19.52;;;;;;;7.63;78.55;99587.41;6205631;22;19906;-62
2024/02/02 21:31:05;;;;;;;30.95;19.73;;;;;;;7.63;78.40;99571.88;6205171;22;20021;-65
2024/02/02 21:33:30;;;;;;;28.92;19.25;;;;;;;7.36;78.94;99555.59;6230387;22;20430;-65
2024/02/02 21:35:57;;;;;;;31.02;20.55;;;;;;;7.63;78.45;99586.56;6228800;22;20008;-64
2024/02/02 21:38:22;;;;;;;33.45;22.20;;;;;;;7.55;78.79;99578.50;6230113;22;20019;-62
2024/02/02 21:40:48;;;;;;;29.08;20.08;;;;;;;7.46;79.47;99575.56;6203347;22;20577;-63
2024/02/02 21:43:14;;;;;;;33.60;21.83;;;;;;;7.47;79.32;99579.00;6230921;22;20062;-65
2024/02/02 21:45:39;;;;;;;32.15;20.58;;;;;;;7.51;79.74;99581.28;6203541;22;20447;-64
2024/02/02 21:48:05;;;;;;;34.80;20.92;;;;;;;7.32;80.07;99575.66;6230244;22;20011;-64
2024/02/02 21:50:31;;;;;;;32.00;20.60;;;;;;;7.49;79.28;99577.97;6201764;22;20369;-64
2024/02/02 21:52:57;;;;;;;30.38;20.67;;;;;;;7.62;78.70;99582.31;6257423;22;20656;-64
2024/02/02 21:55:24;;;;;;;31.52;21.50;;;;;;;7.50;79.62;99599.47;6257109;22;20011;-64
2024/02/02 21:57:52;;;;;;;32.83;21.75;;;;;;;7.27;80.26;99586.31;6229529;22;20775;-66
2024/02/02 22:00:21;;;;;;;32.17;21.40;;;;;;;7.35;81.26;99584.97;6230842;22;20062;-64
2024/02/02 22:02:46;;;;;;;29.60;20.67;;;;;;;7.40;80.00;99581.16;6203353;22;20031;-64
2024/02/02 22:05:12;;;;;;;27.70;19.30;;;;;;;7.43;80.59;99587.88;6228910;22;20365;-64
2024/02/02 22:07:39;;;;;;;33.70;19.92;;;;;;;7.39;80.47;99592.44;6203124;22;20746;-64
2024/02/02 22:10:06;;;;;;;31.33;21.15;;;;;;;7.22;79.61;99534.03;6229341;22;20099;-64
2024/02/02 22:12:31;;;;;;;33.78;22.15;;;;;;;7.51;79.25;99586.44;6228518;22;20008;-66
2024/02/02 22:14:57;;;;;;;35.67;22.08;;;;;;;7.55;80.07;99584.50;6228013;22;20035;-64
2024/02/02 22:17:22;;;;;;;33.30;22.45;;;;;;;7.29;79.38;99530.13;6203203;22;20015;-63
2024/02/02 22:19:47;;;;;;;30.50;21.40;;;;;;;7.49;80.04;99580.53;6203289;22;20008;-65
2024/02/02 22:22:13;;;;;;;32.58;21.92;;;;;;;7.15;80.23;99524.19;6229201;22;20200;-63
2024/02/02 22:24:39;;;;;;;32.90;22.38;;;;;;;7.54;79.44;99584.59;6204086;22;20336;-64
2024/02/02 22:27:07;;;;;;;36.83;23.42;;;;;;;7.55;79.47;99587.06;6203763;22;20121;-64
2024/02/02 22:29:33;;;;;;;34.50;23.25;;;;;;;7.50;79.96;99587.41;6257257;22;20007;-65
2024/02/02 22:31:59;;;;;;;34.85;22.67;;;;;;;7.48;80.83;99588.41;6204868;22;20444;-62
2024/02/02 22:34:24;;;;;;;32.13;22.15;;;;;;;7.44;81.17;99595.53;6204545;22;20070;-63
2024/02/02 22:36:50;;;;;;;35.55;22.38;;;;;;;7.41;81.37;99592.31;6256311;22;20058;-65
2024/02/02 22:39:15;;;;;;;31.67;22.48;;;;;;;7.32;81.85;99597.19;6203544;22;20023;-62
2024/02/02 22:41:41;;;;;;;36.28;23.58;;;;;;;7.46;81.24;99587.69;6203957;22;20340;-65
2024/02/02 22:44:06;;;;;;;34.25;22.80;;;;;;;7.36;80.84;99590.06;6204344;22;20016;-65
2024/02/02 22:46:32;;;;;;;36.00;24.02;;;;;;;7.43;81.48;99580.13;6228124;22;20073;-65
2024/02/02 22:48:59;;;;;;;32.25;23.20;;;;;;;7.25;80.44;99548.53;6229994;22;20007;-66
2024/02/02 22:51:24;;;;;;;36.70;23.17;;;;;;;7.40;80.91;99596.69;6253273;22;20034;-66
2024/02/02 22:53:50;;;;;;;36.80;23.63;;;;;;;7.40;81.17;99585.50;6204584;22;20379;-65
2024/02/02 22:56:15;;;;;;;34.25;23.60;;;;;;;7.42;81.38;99586.22;6229809;22;20408;-65
2024/02/02 22:58:40;;;;;;;37.58;25.60;;;;;;;7.36;81.93;99584.06;6203684;22;20050;-64
2024/02/02 23:01:09;;;;;;;38.53;25.52;;;;;;;7.42;81.72;99575.88;6226360;22;20000;-64
2024/02/02 23:03:34;;;;;;;35.47;24.40;;;;;;;7.11;81.76;99539.91;6205296;22;20018;-64
2024/02/02 23:06:00;;;;;;;34.88;25.25;;;;;;;7.29;82.67;99570.69;6201057;22;20129;-64
2024/02/02 23:08:26;;;;;;;32.70;21.95;;;;;;;7.20;81.69;99522.13;6229618;22;20408;-64
2024/02/02 23:10:51;;;;;;;31.48;23.20;;;;;;;7.46;81.79;99556.63;6204970;22;20053;-65
2024/02/02 23:13:17;;;;;;;30.77;20.27;;;;;;;7.07;82.39;99504.00;6204962;22;20108;-63
2024/02/02 23:15:45;;;;;;;33.25;22.13;;;;;;;7.40;82.11;99544.94;6204127;22;20343;-63
2024/02/02 23:18:11;;;;;;;35.08;22.88;;;;;;;7.29;82.86;99539.63;6229571;22;20085;-65
2024/02/02 23:20:42;;;;;;;33.72;24.38;;;;;;;7.07;83.60;99510.00;6203515;22;20035;-65
2024/02/02 23:23:09;;;;;;;35.17;25.02;;;;;;;7.32;86.48;99555.78;6204429;22;20015;-64
2024/02/02 23:25:35;;;;;;;33.67;24.17;;;;;;;7.30;87.75;99549.03;6204332;22;20332;-64
2024/02/02 23:28:01;;;;;;;32.47;22.75;;;;;;;7.30;88.24;99546.44;6229619;22;20628;-63
2024/02/02 23:30:27;;;;;;;32.72;23.15;;;;;;;7.33;87.74;99541.09;6227913;22;20524;-64
2024/02/02 23:32:53;;;;;;;37.72;23.63;;;;;;;7.07;86.20;99489.31;6229976;22;20000;-63
2024/02/02 23:35:23;;;;;;;38.20;23.85;;;;;;;7.37;85.47;99546.88;6230676;22;20014;-63
2024/02/02 23:37:51;;;;;;;34.00;24.30;;;;;;;7.39;85.16;99534.69;6204184;22;20019;-63
2024/02/02 23:40:16;;;;;;;38.25;24.45;;;;;;;7.11;85.10;99495.94;6205264;22;20094;-63
2024/02/02 23:42:42;;;;;;;34.00;23.10;;;;;;;7.29;85.67;99532.69;6204849;22;20119;-63
2024/02/02 23:45:10;;;;;;;34.53;23.17;;;;;;;7.23;85.68;99520.19;6199763;23;20019;-63
2024/02/02 23:47:36;;;;;;;38.70;23.33;;;;;;;7.09;86.11;99515.91;6205047;22;20014;-64
2024/02/02 23:50:01;;;;;;;35.35;24.55;;;;;;;6.92;85.89;99492.91;6230480;22;20011;-64
2024/02/02 23:52:30;;;;;;;33.22;24.48;;;;;;;6.66;85.79;99459.25;6258001;22;20344;-62
2024/02/02 23:54:55;;;;;;;38.55;24.92;;;;;;;7.02;85.96;99513.81;6206016;22;20106;-64
2024/02/02 23:57:24;;;;;;;36.22;25.05;;;;;;;7.04;87.09;99510.19;6206489;22;20090;-63
2024/02/02 23:59:50;;;;;;;34.50;23.70;;;;;;;6.94;87.60;99511.75;6206739;22;20110;-63
